sensor_id;sensor_type;location;lat;lon;timestamp;P1;durP1;ratioP1;P2;durP2;ratioP2
14048;SDS011;7099;53.922;10.728;2022-11-21T00:00:09;9.67;;;7.17;;
14048;SDS011;7099;53.922;10.728;2022-11-21T00:04:14;15.30;;;7.67;;
14048;SDS011;7099;53.922;10.728;2022-11-21T00:08:20;11.13;;;7.93;;
14048;SDS011;7099;53.922;10.728;2022-11-21T00:12:25;12.70;;;8.53;;
14048;SDS011;7099;53.922;10.728;2022-11-21T00:16:30;12.33;;;8.30;;
14048;SDS011;7099;53.922;10.728;2022-11-21T00:20:36;13.40;;;8.20;;
14048;SDS011;7099;53.922;10.728;2022-11-21T00:24:41;14.33;;;8.83;;
14048;SDS011;7099;53.922;10.728;2022-11-21T00:28:46;11.53;;;7.23;;
14048;SDS011;7099;53.922;10.728;2022-11-21T00:32:51;8.50;;;6.67;;
14048;SDS011;7099;53.922;10.728;2022-11-21T00:36:56;11.50;;;7.43;;
14048;SDS011;7099;53.922;10.728;2022-11-21T00:41:01;10.87;;;7.10;;
14048;SDS011;7099;53.922;10.728;2022-11-21T00:45:06;11.00;;;6.70;;
14048;SDS011;7099;53.922;10.728;2022-11-21T00:49:12;10.47;;;6.80;;
14048;SDS011;7099;53.922;10.728;2022-11-21T00:53:16;8.70;;;6.57;;
14048;SDS011;7099;53.922;10.728;2022-11-21T00:57:21;7.20;;;6.13;;
14048;SDS011;7099;53.922;10.728;2022-11-21T01:01:26;9.33;;;6.30;;
14048;SDS011;7099;53.922;10.728;2022-11-21T01:05:31;12.10;;;6.90;;
14048;SDS011;7099;53.922;10.728;2022-11-21T01:09:36;10.23;;;7.23;;
14048;SDS011;7099;53.922;10.728;2022-11-21T01:13:41;9.00;;;6.40;;
14048;SDS011;7099;53.922;10.728;2022-11-21T01:17:47;9.73;;;6.57;;
14048;SDS011;7099;53.922;10.728;2022-11-21T01:21:52;10.60;;;7.00;;
14048;SDS011;7099;53.922;10.728;2022-11-21T01:26:01;11.40;;;6.70;;
14048;SDS011;7099;53.922;10.728;2022-11-21T01:30:07;9.40;;;6.20;;
14048;SDS011;7099;53.922;10.728;2022-11-21T01:34:15;8.73;;;5.90;;
14048;SDS011;7099;53.922;10.728;2022-11-21T01:38:20;7.20;;;5.60;;
14048;SDS011;7099;53.922;10.728;2022-11-21T01:42:25;8.20;;;5.30;;
14048;SDS011;7099;53.922;10.728;2022-11-21T01:46:30;6.70;;;5.30;;
14048;SDS011;7099;53.922;10.728;2022-11-21T01:50:34;7.80;;;6.10;;
14048;SDS011;7099;53.922;10.728;2022-11-21T01:54:40;7.37;;;5.43;;
14048;SDS011;7099;53.922;10.728;2022-11-21T01:59:03;10.43;;;5.80;;
14048;SDS011;7099;53.922;10.728;2022-11-21T02:03:13;9.40;;;5.57;;
14048;SDS011;7099;53.922;10.728;2022-11-21T02:07:23;7.13;;;5.00;;
14048;SDS011;7099;53.922;10.728;2022-11-21T02:11:31;6.90;;;5.10;;
14048;SDS011;7099;53.922;10.728;2022-11-21T02:15:53;7.30;;;5.30;;
14048;SDS011;7099;53.922;10.728;2022-11-21T02:20:03;6.70;;;4.70;;
14048;SDS011;7099;53.922;10.728;2022-11-21T02:24:20;8.37;;;5.07;;
14048;SDS011;7099;53.922;10.728;2022-11-21T02:28:50;7.83;;;5.57;;
14048;SDS011;7099;53.922;10.728;2022-11-21T02:32:55;6.13;;;5.00;;
14048;SDS011;7099;53.922;10.728;2022-11-21T02:37:00;7.33;;;5.10;;
14048;SDS011;7099;53.922;10.728;2022-11-21T02:41:06;7.70;;;5.17;;
14048;SDS011;7099;53.922;10.728;2022-11-21T02:45:20;7.43;;;5.43;;
14048;SDS011;7099;53.922;10.728;2022-11-21T02:50:05;5.87;;;4.77;;
14048;SDS011;7099;53.922;10.728;2022-11-21T02:54:15;6.87;;;5.17;;
14048;SDS011;7099;53.922;10.728;2022-11-21T02:58:20;6.03;;;4.93;;
14048;SDS011;7099;53.922;10.728;2022-11-21T03:02:25;8.93;;;5.77;;
14048;SDS011;7099;53.922;10.728;2022-11-21T03:06:30;7.37;;;5.33;;
14048;SDS011;7099;53.922;10.728;2022-11-21T03:10:35;6.87;;;5.00;;
14048;SDS011;7099;53.922;10.728;2022-11-21T03:14:40;7.50;;;5.07;;
14048;SDS011;7099;53.922;10.728;2022-11-21T03:18:45;11.40;;;4.57;;
14048;SDS011;7099;53.922;10.728;2022-11-21T03:22:50;6.70;;;5.10;;
14048;SDS011;7099;53.922;10.728;2022-11-21T03:26:56;6.60;;;5.50;;
14048;SDS011;7099;53.922;10.728;2022-11-21T03:31:01;5.77;;;5.00;;
14048;SDS011;7099;53.922;10.728;2022-11-21T03:35:06;7.93;;;4.70;;
14048;SDS011;7099;53.922;10.728;2022-11-21T03:39:11;6.47;;;5.07;;
14048;SDS011;7099;53.922;10.728;2022-11-21T03:43:16;7.43;;;5.53;;
14048;SDS011;7099;53.922;10.728;2022-11-21T03:47:21;7.37;;;5.53;;
14048;SDS011;7099;53.922;10.728;2022-11-21T03:51:27;7.60;;;5.10;;
14048;SDS011;7099;53.922;10.728;2022-11-21T03:55:32;6.83;;;5.20;;
14048;SDS011;7099;53.922;10.728;2022-11-21T03:59:37;6.50;;;5.07;;
14048;SDS011;7099;53.922;10.728;2022-11-21T04:03:42;6.03;;;5.43;;
14048;SDS011;7099;53.922;10.728;2022-11-21T04:07:48;7.77;;;5.60;;
14048;SDS011;7099;53.922;10.728;2022-11-21T04:11:53;7.80;;;5.77;;
14048;SDS011;7099;53.922;10.728;2022-11-21T04:15:58;9.50;;;5.50;;
14048;SDS011;7099;53.922;10.728;2022-11-21T04:20:03;8.77;;;5.70;;
14048;SDS011;7099;53.922;10.728;2022-11-21T04:24:08;6.23;;;5.37;;
14048;SDS011;7099;53.922;10.728;2022-11-21T04:28:13;9.03;;;5.77;;
14048;SDS011;7099;53.922;10.728;2022-11-21T04:32:18;7.13;;;5.00;;
14048;SDS011;7099;53.922;10.728;2022-11-21T04:36:23;10.47;;;5.50;;
14048;SDS011;7099;53.922;10.728;2022-11-21T04:40:28;8.10;;;6.00;;
14048;SDS011;7099;53.922;10.728;2022-11-21T04:44:33;8.07;;;5.90;;
14048;SDS011;7099;53.922;10.728;2022-11-21T04:48:38;9.60;;;5.83;;
14048;SDS011;7099;53.922;10.728;2022-11-21T04:52:49;8.37;;;6.07;;
14048;SDS011;7099;53.922;10.728;2022-11-21T04:56:56;10.27;;;6.40;;
14048;SDS011;7099;53.922;10.728;2022-11-21T05:01:05;7.00;;;5.30;;
14048;SDS011;7099;53.922;10.728;2022-11-21T05:05:11;8.23;;;6.40;;
14048;SDS011;7099;53.922;10.728;2022-11-21T05:09:16;7.60;;;5.63;;
14048;SDS011;7099;53.922;10.728;2022-11-21T05:13:21;7.93;;;5.87;;
14048;SDS011;7099;53.922;10.728;2022-11-21T05:17:27;6.03;;;5.30;;
14048;SDS011;7099;53.922;10.728;2022-11-21T05:21:32;8.13;;;6.10;;
14048;SDS011;7099;53.922;10.728;2022-11-21T05:25:37;8.37;;;6.17;;
14048;SDS011;7099;53.922;10.728;2022-11-21T05:29:42;8.00;;;5.77;;
14048;SDS011;7099;53.922;10.728;2022-11-21T05:33:47;5.93;;;5.30;;
14048;SDS011;7099;53.922;10.728;2022-11-21T05:37:56;9.60;;;5.60;;
14048;SDS011;7099;53.922;10.728;2022-11-21T05:42:01;7.30;;;6.10;;
14048;SDS011;7099;53.922;10.728;2022-11-21T05:46:06;6.57;;;5.77;;
14048;SDS011;7099;53.922;10.728;2022-11-21T05:50:11;7.87;;;6.20;;
14048;SDS011;7099;53.922;10.728;2022-11-21T05:54:16;6.37;;;5.50;;
14048;SDS011;7099;53.922;10.728;2022-11-21T05:58:21;13.48;;;9.25;;
14048;SDS011;7099;53.922;10.728;2022-11-21T06:02:26;8.60;;;6.57;;
14048;SDS011;7099;53.922;10.728;2022-11-21T06:06:49;10.73;;;6.93;;
14048;SDS011;7099;53.922;10.728;2022-11-21T06:10:54;8.40;;;6.90;;
14048;SDS011;7099;53.922;10.728;2022-11-21T06:14:59;9.50;;;6.20;;
14048;SDS011;7099;53.922;10.728;2022-11-21T06:19:04;10.30;;;6.20;;
14048;SDS011;7099;53.922;10.728;2022-11-21T06:23:09;9.37;;;5.90;;
14048;SDS011;7099;53.922;10.728;2022-11-21T06:27:15;8.30;;;5.10;;
14048;SDS011;7099;53.922;10.728;2022-11-21T06:31:21;9.20;;;6.10;;
14048;SDS011;7099;53.922;10.728;2022-11-21T06:35:30;8.70;;;6.27;;
14048;SDS011;7099;53.922;10.728;2022-11-21T06:39:35;6.67;;;5.37;;
14048;SDS011;7099;53.922;10.728;2022-11-21T06:43:40;6.80;;;5.60;;
14048;SDS011;7099;53.922;10.728;2022-11-21T06:47:46;8.83;;;5.80;;
14048;SDS011;7099;53.922;10.728;2022-11-21T06:51:51;9.37;;;5.37;;
14048;SDS011;7099;53.922;10.728;2022-11-21T06:56:00;7.97;;;6.20;;
14048;SDS011;7099;53.922;10.728;2022-11-21T07:00:05;8.50;;;5.83;;
14048;SDS011;7099;53.922;10.728;2022-11-21T07:04:11;8.73;;;5.90;;
14048;SDS011;7099;53.922;10.728;2022-11-21T07:08:16;11.77;;;6.10;;
14048;SDS011;7099;53.922;10.728;2022-11-21T07:12:22;9.10;;;5.93;;
14048;SDS011;7099;53.922;10.728;2022-11-21T07:16:55;6.97;;;5.40;;
14048;SDS011;7099;53.922;10.728;2022-11-21T07:21:01;7.67;;;5.70;;
14048;SDS011;7099;53.922;10.728;2022-11-21T07:25:09;7.90;;;5.37;;
14048;SDS011;7099;53.922;10.728;2022-11-21T07:29:14;7.50;;;5.50;;
14048;SDS011;7099;53.922;10.728;2022-11-21T07:33:19;6.40;;;5.10;;
14048;SDS011;7099;53.922;10.728;2022-11-21T07:37:24;10.47;;;5.80;;
14048;SDS011;7099;53.922;10.728;2022-11-21T07:41:28;10.00;;;6.57;;
14048;SDS011;7099;53.922;10.728;2022-11-21T07:45:33;9.00;;;6.00;;
14048;SDS011;7099;53.922;10.728;2022-11-21T07:49:38;8.13;;;6.20;;
14048;SDS011;7099;53.922;10.728;2022-11-21T07:53:43;8.30;;;6.10;;
14048;SDS011;7099;53.922;10.728;2022-11-21T07:57:55;7.57;;;5.90;;
14048;SDS011;7099;53.922;10.728;2022-11-21T08:02:05;9.37;;;5.43;;
14048;SDS011;7099;53.922;10.728;2022-11-21T08:06:10;10.63;;;6.43;;
14048;SDS011;7099;53.922;10.728;2022-11-21T08:10:17;6.80;;;6.10;;
14048;SDS011;7099;53.922;10.728;2022-11-21T08:14:22;9.10;;;6.80;;
14048;SDS011;7099;53.922;10.728;2022-11-21T08:18:27;9.20;;;6.80;;
14048;SDS011;7099;53.922;10.728;2022-11-21T08:22:36;7.83;;;6.27;;
14048;SDS011;7099;53.922;10.728;2022-11-21T08:26:44;9.20;;;6.00;;
14048;SDS011;7099;53.922;10.728;2022-11-21T08:30:49;8.97;;;7.00;;
14048;SDS011;7099;53.922;10.728;2022-11-21T08:34:54;7.70;;;6.00;;
14048;SDS011;7099;53.922;10.728;2022-11-21T08:38:59;9.27;;;5.60;;
14048;SDS011;7099;53.922;10.728;2022-11-21T08:43:08;9.23;;;6.47;;
14048;SDS011;7099;53.922;10.728;2022-11-21T08:47:13;12.23;;;7.00;;
14048;SDS011;7099;53.922;10.728;2022-11-21T08:51:19;13.67;;;6.73;;
14048;SDS011;7099;53.922;10.728;2022-11-21T08:55:25;8.53;;;6.50;;
14048;SDS011;7099;53.922;10.728;2022-11-21T08:59:30;10.53;;;6.87;;
14048;SDS011;7099;53.922;10.728;2022-11-21T09:03:35;9.80;;;6.27;;
14048;SDS011;7099;53.922;10.728;2022-11-21T09:07:40;10.73;;;7.80;;
14048;SDS011;7099;53.922;10.728;2022-11-21T09:11:45;8.27;;;6.40;;
14048;SDS011;7099;53.922;10.728;2022-11-21T09:15:49;10.30;;;6.87;;
14048;SDS011;7099;53.922;10.728;2022-11-21T09:20:13;9.93;;;6.67;;
14048;SDS011;7099;53.922;10.728;2022-11-21T09:24:18;8.37;;;5.80;;
14048;SDS011;7099;53.922;10.728;2022-11-21T09:28:23;9.37;;;6.53;;
14048;SDS011;7099;53.922;10.728;2022-11-21T09:32:28;9.70;;;6.50;;
14048;SDS011;7099;53.922;10.728;2022-11-21T09:36:34;10.30;;;6.43;;
14048;SDS011;7099;53.922;10.728;2022-11-21T09:40:40;8.87;;;6.20;;
14048;SDS011;7099;53.922;10.728;2022-11-21T09:49:26;8.53;;;6.70;;
14048;SDS011;7099;53.922;10.728;2022-11-21T09:53:37;10.23;;;7.10;;
14048;SDS011;7099;53.922;10.728;2022-11-21T09:57:54;10.00;;;6.90;;
14048;SDS011;7099;53.922;10.728;2022-11-21T10:02:23;10.83;;;6.20;;
14048;SDS011;7099;53.922;10.728;2022-11-21T10:06:35;13.10;;;7.50;;
14048;SDS011;7099;53.922;10.728;2022-11-21T10:24:55;14.93;;;7.93;;
14048;SDS011;7099;53.922;10.728;2022-11-21T10:29:36;11.60;;;7.40;;
14048;SDS011;7099;53.922;10.728;2022-11-21T10:33:48;14.47;;;8.67;;
14048;SDS011;7099;53.922;10.728;2022-11-21T10:37:57;11.73;;;7.33;;
14048;SDS011;7099;53.922;10.728;2022-11-21T10:42:11;12.93;;;7.47;;
14048;SDS011;7099;53.922;10.728;2022-11-21T10:47:00;13.50;;;7.20;;
14048;SDS011;7099;53.922;10.728;2022-11-21T10:55:21;11.93;;;7.40;;
14048;SDS011;7099;53.922;10.728;2022-11-21T10:59:26;14.33;;;8.63;;
14048;SDS011;7099;53.922;10.728;2022-11-21T11:03:34;13.80;;;7.80;;
14048;SDS011;7099;53.922;10.728;2022-11-21T11:07:39;11.87;;;7.53;;
14048;SDS011;7099;53.922;10.728;2022-11-21T11:11:44;14.53;;;7.73;;
14048;SDS011;7099;53.922;10.728;2022-11-21T11:15:53;15.07;;;7.60;;
14048;SDS011;7099;53.922;10.728;2022-11-21T11:20:30;19.90;;;8.80;;
14048;SDS011;7099;53.922;10.728;2022-11-21T11:24:51;12.20;;;7.97;;
14048;SDS011;7099;53.922;10.728;2022-11-21T11:29:13;13.23;;;8.40;;
14048;SDS011;7099;53.922;10.728;2022-11-21T11:33:31;14.10;;;7.90;;
14048;SDS011;7099;53.922;10.728;2022-11-21T11:37:47;14.97;;;8.20;;
14048;SDS011;7099;53.922;10.728;2022-11-21T11:47:02;16.50;;;9.37;;
14048;SDS011;7099;53.922;10.728;2022-11-21T11:51:41;14.67;;;9.13;;
14048;SDS011;7099;53.922;10.728;2022-11-21T11:55:53;15.33;;;8.93;;
14048;SDS011;7099;53.922;10.728;2022-11-21T12:00:06;15.00;;;9.53;;
14048;SDS011;7099;53.922;10.728;2022-11-21T12:04:41;17.63;;;9.77;;
14048;SDS011;7099;53.922;10.728;2022-11-21T12:09:40;14.07;;;9.37;;
14048;SDS011;7099;53.922;10.728;2022-11-21T12:13:38;14.90;;;8.30;;
14048;SDS011;7099;53.922;10.728;2022-11-21T12:17:58;13.73;;;9.10;;
14048;SDS011;7099;53.922;10.728;2022-11-21T12:22:16;13.00;;;8.90;;
14048;SDS011;7099;53.922;10.728;2022-11-21T12:31:19;10.57;;;8.00;;
14048;SDS011;7099;53.922;10.728;2022-11-21T12:35:56;12.50;;;8.30;;
14048;SDS011;7099;53.922;10.728;2022-11-21T12:58:42;10.10;;;7.17;;
14048;SDS011;7099;53.922;10.728;2022-11-21T13:07:40;10.57;;;7.30;;
14048;SDS011;7099;53.922;10.728;2022-11-21T13:16:15;10.83;;;7.37;;
14048;SDS011;7099;53.922;10.728;2022-11-21T13:20:44;8.00;;;6.60;;
14048;SDS011;7099;53.922;10.728;2022-11-21T13:24:55;10.10;;;7.70;;
14048;SDS011;7099;53.922;10.728;2022-11-21T13:29:08;13.23;;;6.13;;
14048;SDS011;7099;53.922;10.728;2022-11-21T13:51:30;11.30;;;8.00;;
14048;SDS011;7099;53.922;10.728;2022-11-21T13:55:57;11.43;;;8.27;;
14048;SDS011;7099;53.922;10.728;2022-11-21T14:08:39;12.80;;;8.43;;
14048;SDS011;7099;53.922;10.728;2022-11-21T14:12:46;12.30;;;8.07;;
14048;SDS011;7099;53.922;10.728;2022-11-21T14:16:56;12.30;;;7.53;;
14048;SDS011;7099;53.922;10.728;2022-11-21T14:21:28;12.73;;;8.10;;
14048;SDS011;7099;53.922;10.728;2022-11-21T14:25:40;10.73;;;7.40;;
14048;SDS011;7099;53.922;10.728;2022-11-21T14:29:50;9.10;;;6.80;;
14048;SDS011;7099;53.922;10.728;2022-11-21T14:33:55;11.27;;;7.47;;
14048;SDS011;7099;53.922;10.728;2022-11-21T14:38:04;11.70;;;7.63;;
14048;SDS011;7099;53.922;10.728;2022-11-21T14:42:10;9.10;;;6.70;;
14048;SDS011;7099;53.922;10.728;2022-11-21T14:46:19;12.67;;;6.90;;
14048;SDS011;7099;53.922;10.728;2022-11-21T14:50:28;9.00;;;7.40;;
14048;SDS011;7099;53.922;10.728;2022-11-21T14:54:50;10.40;;;7.43;;
14048;SDS011;7099;53.922;10.728;2022-11-21T14:59:29;12.20;;;7.80;;
14048;SDS011;7099;53.922;10.728;2022-11-21T15:04:28;11.60;;;7.03;;
14048;SDS011;7099;53.922;10.728;2022-11-21T15:08:21;11.27;;;7.40;;
14048;SDS011;7099;53.922;10.728;2022-11-21T15:12:55;10.13;;;7.13;;
14048;SDS011;7099;53.922;10.728;2022-11-21T15:17:12;13.53;;;7.77;;
14048;SDS011;7099;53.922;10.728;2022-11-21T15:21:21;10.10;;;7.70;;
14048;SDS011;7099;53.922;10.728;2022-11-21T15:25:27;12.80;;;8.77;;
14048;SDS011;7099;53.922;10.728;2022-11-21T15:29:34;14.10;;;8.20;;
14048;SDS011;7099;53.922;10.728;2022-11-21T15:38:31;15.02;;;11.07;;
14048;SDS011;7099;53.922;10.728;2022-11-21T15:42:45;14.50;;;9.13;;
14048;SDS011;7099;53.922;10.728;2022-11-21T15:46:50;14.53;;;8.83;;
14048;SDS011;7099;53.922;10.728;2022-11-21T15:50:55;12.20;;;8.70;;
14048;SDS011;7099;53.922;10.728;2022-11-21T15:55:02;12.23;;;8.00;;
14048;SDS011;7099;53.922;10.728;2022-11-21T15:59:07;14.43;;;8.80;;
14048;SDS011;7099;53.922;10.728;2022-11-21T16:03:13;16.10;;;9.70;;
14048;SDS011;7099;53.922;10.728;2022-11-21T16:07:18;12.83;;;8.63;;
14048;SDS011;7099;53.922;10.728;2022-11-21T16:11:24;12.80;;;8.53;;
14048;SDS011;7099;53.922;10.728;2022-11-21T16:15:32;11.37;;;8.10;;
14048;SDS011;7099;53.922;10.728;2022-11-21T16:19:38;12.77;;;8.93;;
14048;SDS011;7099;53.922;10.728;2022-11-21T16:23:43;15.83;;;10.10;;
14048;SDS011;7099;53.922;10.728;2022-11-21T16:27:48;17.10;;;10.33;;
14048;SDS011;7099;53.922;10.728;2022-11-21T16:31:53;13.87;;;9.50;;
14048;SDS011;7099;53.922;10.728;2022-11-21T16:35:59;17.20;;;10.20;;
14048;SDS011;7099;53.922;10.728;2022-11-21T16:40:04;12.87;;;8.20;;
14048;SDS011;7099;53.922;10.728;2022-11-21T16:44:13;17.43;;;10.33;;
14048;SDS011;7099;53.922;10.728;2022-11-21T16:48:20;13.27;;;9.20;;
14048;SDS011;7099;53.922;10.728;2022-11-21T16:52:26;14.33;;;9.20;;
14048;SDS011;7099;53.922;10.728;2022-11-21T16:56:31;14.30;;;8.80;;
14048;SDS011;7099;53.922;10.728;2022-11-21T17:00:36;17.83;;;9.30;;
14048;SDS011;7099;53.922;10.728;2022-11-21T17:04:40;18.07;;;9.30;;
14048;SDS011;7099;53.922;10.728;2022-11-21T17:08:46;15.10;;;8.97;;
14048;SDS011;7099;53.922;10.728;2022-11-21T17:12:51;16.83;;;10.77;;
14048;SDS011;7099;53.922;10.728;2022-11-21T17:16:56;18.57;;;11.20;;
14048;SDS011;7099;53.922;10.728;2022-11-21T17:21:04;22.33;;;12.07;;
14048;SDS011;7099;53.922;10.728;2022-11-21T17:25:12;17.30;;;11.00;;
14048;SDS011;7099;53.922;10.728;2022-11-21T17:29:17;15.23;;;10.17;;
14048;SDS011;7099;53.922;10.728;2022-11-21T17:33:22;16.20;;;10.40;;
14048;SDS011;7099;53.922;10.728;2022-11-21T17:37:27;16.90;;;9.67;;
14048;SDS011;7099;53.922;10.728;2022-11-21T17:41:32;14.40;;;9.67;;
14048;SDS011;7099;53.922;10.728;2022-11-21T17:45:37;16.60;;;10.40;;
14048;SDS011;7099;53.922;10.728;2022-11-21T17:49:42;16.80;;;9.93;;
14048;SDS011;7099;53.922;10.728;2022-11-21T17:53:48;15.60;;;9.30;;
14048;SDS011;7099;53.922;10.728;2022-11-21T17:57:54;15.03;;;9.07;;
14048;SDS011;7099;53.922;10.728;2022-11-21T18:01:59;21.77;;;12.37;;
14048;SDS011;7099;53.922;10.728;2022-11-21T18:06:06;20.07;;;11.30;;
14048;SDS011;7099;53.922;10.728;2022-11-21T18:10:16;17.80;;;10.90;;
14048;SDS011;7099;53.922;10.728;2022-11-21T18:14:41;18.73;;;11.20;;
14048;SDS011;7099;53.922;10.728;2022-11-21T18:18:46;19.60;;;12.07;;
14048;SDS011;7099;53.922;10.728;2022-11-21T18:22:53;19.40;;;11.50;;
14048;SDS011;7099;53.922;10.728;2022-11-21T18:26:58;16.60;;;9.90;;
14048;SDS011;7099;53.922;10.728;2022-11-21T18:31:04;15.60;;;9.47;;
14048;SDS011;7099;53.922;10.728;2022-11-21T18:35:13;19.97;;;10.60;;
14048;SDS011;7099;53.922;10.728;2022-11-21T18:39:18;20.27;;;11.57;;
14048;SDS011;7099;53.922;10.728;2022-11-21T18:43:31;36.70;;;16.67;;
14048;SDS011;7099;53.922;10.728;2022-11-21T18:47:36;18.23;;;9.67;;
14048;SDS011;7099;53.922;10.728;2022-11-21T18:51:41;20.87;;;11.70;;
14048;SDS011;7099;53.922;10.728;2022-11-21T18:55:45;16.40;;;8.83;;
14048;SDS011;7099;53.922;10.728;2022-11-21T18:59:50;15.70;;;9.03;;
14048;SDS011;7099;53.922;10.728;2022-11-21T19:03:55;34.47;;;17.47;;
14048;SDS011;7099;53.922;10.728;2022-11-21T19:08:00;38.13;;;20.10;;
14048;SDS011;7099;53.922;10.728;2022-11-21T19:12:05;35.00;;;19.93;;
14048;SDS011;7099;53.922;10.728;2022-11-21T19:16:11;29.33;;;15.80;;
14048;SDS011;7099;53.922;10.728;2022-11-21T19:20:19;26.30;;;13.30;;
14048;SDS011;7099;53.922;10.728;2022-11-21T19:24:23;22.60;;;11.50;;
14048;SDS011;7099;53.922;10.728;2022-11-21T19:28:28;21.10;;;12.20;;
14048;SDS011;7099;53.922;10.728;2022-11-21T19:32:33;18.37;;;10.27;;
14048;SDS011;7099;53.922;10.728;2022-11-21T19:36:39;17.30;;;9.73;;
14048;SDS011;7099;53.922;10.728;2022-11-21T19:40:45;17.10;;;9.60;;
14048;SDS011;7099;53.922;10.728;2022-11-21T19:45:08;16.57;;;9.93;;
14048;SDS011;7099;53.922;10.728;2022-11-21T19:49:14;18.87;;;10.10;;
14048;SDS011;7099;53.922;10.728;2022-11-21T19:53:22;20.40;;;10.83;;
14048;SDS011;7099;53.922;10.728;2022-11-21T19:57:28;17.50;;;10.33;;
14048;SDS011;7099;53.922;10.728;2022-11-21T20:01:33;18.60;;;10.37;;
14048;SDS011;7099;53.922;10.728;2022-11-21T20:05:38;14.70;;;9.23;;
14048;SDS011;7099;53.922;10.728;2022-11-21T20:09:43;16.93;;;10.00;;
14048;SDS011;7099;53.922;10.728;2022-11-21T20:13:49;14.23;;;8.97;;
14048;SDS011;7099;53.922;10.728;2022-11-21T20:17:55;17.93;;;10.23;;
14048;SDS011;7099;53.922;10.728;2022-11-21T20:22:00;16.87;;;10.07;;
14048;SDS011;7099;53.922;10.728;2022-11-21T20:26:05;18.17;;;10.50;;
14048;SDS011;7099;53.922;10.728;2022-11-21T20:30:12;17.97;;;9.90;;
14048;SDS011;7099;53.922;10.728;2022-11-21T20:34:17;17.47;;;10.23;;
14048;SDS011;7099;53.922;10.728;2022-11-21T20:38:21;17.97;;;11.00;;
14048;SDS011;7099;53.922;10.728;2022-11-21T20:42:27;17.60;;;10.20;;
14048;SDS011;7099;53.922;10.728;2022-11-21T20:46:33;20.10;;;11.17;;
14048;SDS011;7099;53.922;10.728;2022-11-21T20:50:38;18.40;;;11.10;;
14048;SDS011;7099;53.922;10.728;2022-11-21T20:55:03;21.70;;;10.80;;
14048;SDS011;7099;53.922;10.728;2022-11-21T20:59:08;19.50;;;10.63;;
14048;SDS011;7099;53.922;10.728;2022-11-21T21:03:13;17.00;;;9.57;;
14048;SDS011;7099;53.922;10.728;2022-11-21T21:07:18;20.27;;;11.47;;
14048;SDS011;7099;53.922;10.728;2022-11-21T21:11:23;16.87;;;10.50;;
14048;SDS011;7099;53.922;10.728;2022-11-21T21:15:48;17.97;;;10.90;;
14048;SDS011;7099;53.922;10.728;2022-11-21T21:19:53;19.60;;;12.33;;
14048;SDS011;7099;53.922;10.728;2022-11-21T21:24:02;18.83;;;10.93;;
14048;SDS011;7099;53.922;10.728;2022-11-21T21:28:09;18.73;;;11.63;;
14048;SDS011;7099;53.922;10.728;2022-11-21T21:32:14;16.93;;;10.23;;
14048;SDS011;7099;53.922;10.728;2022-11-21T21:36:20;18.30;;;10.50;;
14048;SDS011;7099;53.922;10.728;2022-11-21T21:40:27;15.47;;;10.07;;
14048;SDS011;7099;53.922;10.728;2022-11-21T21:44:32;18.50;;;11.10;;
14048;SDS011;7099;53.922;10.728;2022-11-21T21:48:37;20.10;;;11.50;;
14048;SDS011;7099;53.922;10.728;2022-11-21T21:52:43;17.73;;;10.50;;
14048;SDS011;7099;53.922;10.728;2022-11-21T21:56:48;20.90;;;10.77;;
14048;SDS011;7099;53.922;10.728;2022-11-21T22:00:53;17.80;;;10.40;;
14048;SDS011;7099;53.922;10.728;2022-11-21T22:05:30;15.90;;;9.87;;
14048;SDS011;7099;53.922;10.728;2022-11-21T22:09:34;17.40;;;10.50;;
14048;SDS011;7099;53.922;10.728;2022-11-21T22:13:40;15.70;;;9.70;;
14048;SDS011;7099;53.922;10.728;2022-11-21T22:17:47;19.83;;;9.10;;
14048;SDS011;7099;53.922;10.728;2022-11-21T22:21:52;16.83;;;9.67;;
14048;SDS011;7099;53.922;10.728;2022-11-21T22:25:57;20.37;;;9.43;;
14048;SDS011;7099;53.922;10.728;2022-11-21T22:30:02;14.10;;;8.87;;
14048;SDS011;7099;53.922;10.728;2022-11-21T22:34:08;13.47;;;8.53;;
14048;SDS011;7099;53.922;10.728;2022-11-21T22:38:16;15.93;;;10.00;;
14048;SDS011;7099;53.922;10.728;2022-11-21T22:42:21;17.60;;;10.17;;
14048;SDS011;7099;53.922;10.728;2022-11-21T22:46:27;20.30;;;11.13;;
14048;SDS011;7099;53.922;10.728;2022-11-21T22:50:34;15.53;;;8.70;;
14048;SDS011;7099;53.922;10.728;2022-11-21T22:54:39;14.87;;;9.40;;
14048;SDS011;7099;53.922;10.728;2022-11-21T22:58:44;18.10;;;11.27;;
14048;SDS011;7099;53.922;10.728;2022-11-21T23:02:49;18.63;;;10.83;;
14048;SDS011;7099;53.922;10.728;2022-11-21T23:06:54;15.23;;;8.80;;
14048;SDS011;7099;53.922;10.728;2022-11-21T23:11:03;19.13;;;10.67;;
14048;SDS011;7099;53.922;10.728;2022-11-21T23:15:13;18.57;;;11.60;;
14048;SDS011;7099;53.922;10.728;2022-11-21T23:19:18;15.47;;;10.63;;
14048;SDS011;7099;53.922;10.728;2022-11-21T23:23:23;17.17;;;10.60;;
14048;SDS011;7099;53.922;10.728;2022-11-21T23:27:29;19.27;;;11.47;;
14048;SDS011;7099;53.922;10.728;2022-11-21T23:31:34;20.63;;;10.10;;
14048;SDS011;7099;53.922;10.728;2022-11-21T23:35:39;21.20;;;11.03;;
14048;SDS011;7099;53.922;10.728;2022-11-21T23:39:45;23.33;;;12.00;;
14048;SDS011;7099;53.922;10.728;2022-11-21T23:43:50;17.27;;;10.57;;
14048;SDS011;7099;53.922;10.728;2022-11-21T23:47:55;14.77;;;9.60;;
14048;SDS011;7099;53.922;10.728;2022-11-21T23:52:01;18.73;;;11.43;;
14048;SDS011;7099;53.922;10.728;2022-11-21T23:56:06;17.63;;;10.60;;
